sensor_id;sensor_type;location;lat;lon;timestamp;P1;durP1;ratioP1;P2;durP2;ratioP2
17773;SDS011;9011;33.236;-97.118;2023-04-06T00:00:12;3.33;;;0.57;;
17773;SDS011;9011;33.236;-97.118;2023-04-06T00:02:42;2.35;;;0.35;;
17773;SDS011;9011;33.236;-97.118;2023-04-06T00:05:10;1.95;;;0.50;;
17773;SDS011;9011;33.236;-97.118;2023-04-06T00:07:39;2.67;;;0.70;;
17773;SDS011;9011;33.236;-97.118;2023-04-06T00:10:08;1.75;;;0.65;;
17773;SDS011;9011;33.236;-97.118;2023-04-06T00:12:37;0.60;;;0.40;;
17773;SDS011;9011;33.236;-97.118;2023-04-06T00:15:07;1.13;;;0.70;;
17773;SDS011;9011;33.236;-97.118;2023-04-06T00:17:36;3.08;;;0.60;;
17773;SDS011;9011;33.236;-97.118;2023-04-06T00:20:06;3.88;;;0.40;;
17773;SDS011;9011;33.236;-97.118;2023-04-06T00:22:35;6.90;;;0.90;;
17773;SDS011;9011;33.236;-97.118;2023-04-06T00:25:03;1.90;;;0.50;;
17773;SDS011;9011;33.236;-97.118;2023-04-06T00:27:32;2.92;;;0.60;;
17773;SDS011;9011;33.236;-97.118;2023-04-06T00:30:01;13.65;;;2.47;;
17773;SDS011;9011;33.236;-97.118;2023-04-06T00:32:31;5.05;;;0.50;;
17773;SDS011;9011;33.236;-97.118;2023-04-06T00:35:01;2.67;;;0.85;;
17773;SDS011;9011;33.236;-97.118;2023-04-06T00:37:30;3.25;;;0.40;;
17773;SDS011;9011;33.236;-97.118;2023-04-06T00:39:59;3.33;;;0.50;;
17773;SDS011;9011;33.236;-97.118;2023-04-06T00:42:28;5.40;;;0.60;;
17773;SDS011;9011;33.236;-97.118;2023-04-06T00:44:57;2.47;;;0.60;;
17773;SDS011;9011;33.236;-97.118;2023-04-06T00:47:27;0.80;;;0.40;;
17773;SDS011;9011;33.236;-97.118;2023-04-06T00:49:57;3.72;;;0.68;;
17773;SDS011;9011;33.236;-97.118;2023-04-06T00:52:26;1.70;;;0.60;;
17773;SDS011;9011;33.236;-97.118;2023-04-06T00:54:54;7.50;;;1.40;;
17773;SDS011;9011;33.236;-97.118;2023-04-06T00:57:23;3.17;;;1.05;;
17773;SDS011;9011;33.236;-97.118;2023-04-06T00:59:52;0.77;;;0.50;;
17773;SDS011;9011;33.236;-97.118;2023-04-06T01:02:21;3.33;;;0.50;;
17773;SDS011;9011;33.236;-97.118;2023-04-06T01:04:50;1.63;;;0.40;;
17773;SDS011;9011;33.236;-97.118;2023-04-06T01:07:21;9.88;;;1.17;;
17773;SDS011;9011;33.236;-97.118;2023-04-06T01:09:50;3.35;;;0.47;;
17773;SDS011;9011;33.236;-97.118;2023-04-06T01:12:21;1.67;;;0.40;;
17773;SDS011;9011;33.236;-97.118;2023-04-06T01:14:49;2.47;;;1.10;;
17773;SDS011;9011;33.236;-97.118;2023-04-06T01:17:18;4.32;;;0.85;;
17773;SDS011;9011;33.236;-97.118;2023-04-06T01:19:46;8.52;;;0.75;;
17773;SDS011;9011;33.236;-97.118;2023-04-06T01:22:18;1.55;;;0.60;;
17773;SDS011;9011;33.236;-97.118;2023-04-06T01:24:47;9.45;;;1.10;;
17773;SDS011;9011;33.236;-97.118;2023-04-06T01:27:15;2.08;;;0.80;;
17773;SDS011;9011;33.236;-97.118;2023-04-06T01:29:44;1.83;;;0.60;;
17773;SDS011;9011;33.236;-97.118;2023-04-06T01:32:12;3.05;;;0.80;;
17773;SDS011;9011;33.236;-97.118;2023-04-06T01:34:41;10.40;;;1.15;;
17773;SDS011;9011;33.236;-97.118;2023-04-06T01:37:09;1.17;;;1.00;;
17773;SDS011;9011;33.236;-97.118;2023-04-06T01:39:39;2.15;;;0.55;;
17773;SDS011;9011;33.236;-97.118;2023-04-06T01:42:08;3.05;;;0.85;;
17773;SDS011;9011;33.236;-97.118;2023-04-06T01:44:37;1.13;;;0.65;;
17773;SDS011;9011;33.236;-97.118;2023-04-06T01:47:05;2.45;;;0.75;;
17773;SDS011;9011;33.236;-97.118;2023-04-06T01:49:34;3.90;;;0.63;;
17773;SDS011;9011;33.236;-97.118;2023-04-06T01:52:03;2.13;;;1.13;;
17773;SDS011;9011;33.236;-97.118;2023-04-06T01:54:31;2.45;;;0.60;;
17773;SDS011;9011;33.236;-97.118;2023-04-06T01:57:01;1.30;;;0.73;;
17773;SDS011;9011;33.236;-97.118;2023-04-06T01:59:30;3.63;;;0.77;;
17773;SDS011;9011;33.236;-97.118;2023-04-06T02:01:59;3.08;;;0.65;;
17773;SDS011;9011;33.236;-97.118;2023-04-06T02:04:27;0.70;;;0.60;;
17773;SDS011;9011;33.236;-97.118;2023-04-06T02:06:56;1.60;;;0.77;;
17773;SDS011;9011;33.236;-97.118;2023-04-06T02:09:24;2.55;;;0.88;;
17773;SDS011;9011;33.236;-97.118;2023-04-06T02:11:53;1.20;;;0.55;;
17773;SDS011;9011;33.236;-97.118;2023-04-06T02:14:24;1.42;;;0.60;;
17773;SDS011;9011;33.236;-97.118;2023-04-06T02:16:53;6.72;;;1.17;;
17773;SDS011;9011;33.236;-97.118;2023-04-06T02:19:21;2.38;;;0.70;;
17773;SDS011;9011;33.236;-97.118;2023-04-06T02:21:50;1.02;;;0.50;;
17773;SDS011;9011;33.236;-97.118;2023-04-06T02:24:18;3.33;;;0.60;;
17773;SDS011;9011;33.236;-97.118;2023-04-06T02:26:47;0.68;;;0.47;;
17773;SDS011;9011;33.236;-97.118;2023-04-06T02:29:16;3.47;;;0.65;;
17773;SDS011;9011;33.236;-97.118;2023-04-06T02:31:46;0.60;;;0.38;;
17773;SDS011;9011;33.236;-97.118;2023-04-06T02:34:14;3.55;;;0.43;;
17773;SDS011;9011;33.236;-97.118;2023-04-06T02:36:44;1.15;;;0.70;;
17773;SDS011;9011;33.236;-97.118;2023-04-06T02:39:14;1.02;;;0.60;;
17773;SDS011;9011;33.236;-97.118;2023-04-06T02:41:42;0.80;;;0.60;;
17773;SDS011;9011;33.236;-97.118;2023-04-06T02:44:11;1.02;;;0.40;;
17773;SDS011;9011;33.236;-97.118;2023-04-06T02:46:39;1.83;;;0.38;;
17773;SDS011;9011;33.236;-97.118;2023-04-06T02:49:09;0.93;;;0.40;;
17773;SDS011;9011;33.236;-97.118;2023-04-06T02:51:38;1.48;;;0.30;;
17773;SDS011;9011;33.236;-97.118;2023-04-06T02:54:06;0.43;;;0.32;;
17773;SDS011;9011;33.236;-97.118;2023-04-06T02:56:35;1.02;;;0.40;;
17773;SDS011;9011;33.236;-97.118;2023-04-06T02:59:04;0.20;;;0.20;;
17773;SDS011;9011;33.236;-97.118;2023-04-06T03:01:32;19.10;;;1.98;;
17773;SDS011;9011;33.236;-97.118;2023-04-06T03:04:01;1.75;;;0.52;;
17773;SDS011;9011;33.236;-97.118;2023-04-06T03:06:31;0.50;;;0.40;;
17773;SDS011;9011;33.236;-97.118;2023-04-06T03:09:00;1.55;;;0.40;;
17773;SDS011;9011;33.236;-97.118;2023-04-06T03:11:29;4.88;;;1.00;;
17773;SDS011;9011;33.236;-97.118;2023-04-06T03:13:57;1.35;;;0.50;;
17773;SDS011;9011;33.236;-97.118;2023-04-06T03:16:26;0.50;;;0.30;;
17773;SDS011;9011;33.236;-97.118;2023-04-06T03:18:54;0.68;;;0.30;;
17773;SDS011;9011;33.236;-97.118;2023-04-06T03:21:23;3.28;;;0.35;;
17773;SDS011;9011;33.236;-97.118;2023-04-06T03:23:53;0.70;;;0.47;;
17773;SDS011;9011;33.236;-97.118;2023-04-06T03:26:21;0.63;;;0.40;;
17773;SDS011;9011;33.236;-97.118;2023-04-06T03:28:50;0.63;;;0.40;;
17773;SDS011;9011;33.236;-97.118;2023-04-06T03:31:19;0.45;;;0.30;;
17773;SDS011;9011;33.236;-97.118;2023-04-06T03:33:47;0.88;;;0.50;;
17773;SDS011;9011;33.236;-97.118;2023-04-06T03:36:16;1.63;;;1.15;;
17773;SDS011;9011;33.236;-97.118;2023-04-06T03:38:44;0.90;;;0.40;;
17773;SDS011;9011;33.236;-97.118;2023-04-06T03:41:14;0.50;;;0.43;;
17773;SDS011;9011;33.236;-97.118;2023-04-06T03:43:43;1.25;;;0.38;;
17773;SDS011;9011;33.236;-97.118;2023-04-06T03:46:11;2.90;;;0.75;;
17773;SDS011;9011;33.236;-97.118;2023-04-06T03:48:40;0.68;;;0.30;;
17773;SDS011;9011;33.236;-97.118;2023-04-06T03:51:08;0.88;;;0.50;;
17773;SDS011;9011;33.236;-97.118;2023-04-06T03:53:37;1.55;;;0.40;;
17773;SDS011;9011;33.236;-97.118;2023-04-06T03:56:06;0.93;;;0.30;;
17773;SDS011;9011;33.236;-97.118;2023-04-06T03:58:36;2.28;;;1.10;;
17773;SDS011;9011;33.236;-97.118;2023-04-06T04:01:04;2.15;;;0.47;;
17773;SDS011;9011;33.236;-97.118;2023-04-06T04:03:33;0.47;;;0.32;;
17773;SDS011;9011;33.236;-97.118;2023-04-06T04:06:01;1.63;;;0.52;;
17773;SDS011;9011;33.236;-97.118;2023-04-06T04:08:30;1.27;;;0.43;;
17773;SDS011;9011;33.236;-97.118;2023-04-06T04:10:58;0.80;;;0.40;;
17773;SDS011;9011;33.236;-97.118;2023-04-06T04:13:27;1.00;;;0.50;;
17773;SDS011;9011;33.236;-97.118;2023-04-06T04:15:57;2.40;;;0.50;;
17773;SDS011;9011;33.236;-97.118;2023-04-06T04:18:26;0.63;;;0.40;;
17773;SDS011;9011;33.236;-97.118;2023-04-06T04:20:54;0.63;;;0.40;;
17773;SDS011;9011;33.236;-97.118;2023-04-06T04:23:23;3.25;;;0.80;;
17773;SDS011;9011;33.236;-97.118;2023-04-06T04:25:51;1.42;;;0.47;;
17773;SDS011;9011;33.236;-97.118;2023-04-06T04:28:20;2.17;;;0.43;;
17773;SDS011;9011;33.236;-97.118;2023-04-06T04:30:48;1.63;;;0.50;;
17773;SDS011;9011;33.236;-97.118;2023-04-06T04:33:18;1.05;;;0.50;;
17773;SDS011;9011;33.236;-97.118;2023-04-06T04:35:47;1.88;;;0.32;;
17773;SDS011;9011;33.236;-97.118;2023-04-06T04:38:15;1.85;;;0.50;;
17773;SDS011;9011;33.236;-97.118;2023-04-06T04:40:44;0.50;;;0.50;;
17773;SDS011;9011;33.236;-97.118;2023-04-06T04:43:12;4.03;;;0.70;;
17773;SDS011;9011;33.236;-97.118;2023-04-06T04:45:41;1.42;;;0.50;;
17773;SDS011;9011;33.236;-97.118;2023-04-06T04:48:09;1.25;;;0.50;;
17773;SDS011;9011;33.236;-97.118;2023-04-06T04:50:39;0.85;;;0.55;;
17773;SDS011;9011;33.236;-97.118;2023-04-06T04:53:08;2.65;;;0.50;;
17773;SDS011;9011;33.236;-97.118;2023-04-06T04:55:36;1.95;;;0.52;;
17773;SDS011;9011;33.236;-97.118;2023-04-06T04:58:05;0.40;;;0.40;;
17773;SDS011;9011;33.236;-97.118;2023-04-06T05:00:34;1.67;;;0.40;;
17773;SDS011;9011;33.236;-97.118;2023-04-06T05:03:04;1.77;;;0.70;;
17773;SDS011;9011;33.236;-97.118;2023-04-06T05:05:33;2.15;;;0.55;;
17773;SDS011;9011;33.236;-97.118;2023-04-06T05:08:03;2.55;;;0.60;;
17773;SDS011;9011;33.236;-97.118;2023-04-06T05:10:32;0.70;;;0.40;;
17773;SDS011;9011;33.236;-97.118;2023-04-06T05:13:02;1.15;;;0.63;;
17773;SDS011;9011;33.236;-97.118;2023-04-06T05:15:30;1.17;;;0.50;;
17773;SDS011;9011;33.236;-97.118;2023-04-06T05:18:00;1.45;;;0.40;;
17773;SDS011;9011;33.236;-97.118;2023-04-06T05:20:28;0.73;;;0.30;;
17773;SDS011;9011;33.236;-97.118;2023-04-06T05:22:57;1.00;;;0.70;;
17773;SDS011;9011;33.236;-97.118;2023-04-06T05:25:27;0.77;;;0.50;;
17773;SDS011;9011;33.236;-97.118;2023-04-06T05:27:56;1.40;;;0.50;;
17773;SDS011;9011;33.236;-97.118;2023-04-06T05:30:25;0.63;;;0.40;;
17773;SDS011;9011;33.236;-97.118;2023-04-06T05:32:53;0.80;;;0.80;;
17773;SDS011;9011;33.236;-97.118;2023-04-06T05:35:22;0.77;;;0.50;;
17773;SDS011;9011;33.236;-97.118;2023-04-06T05:37:51;1.42;;;0.50;;
17773;SDS011;9011;33.236;-97.118;2023-04-06T05:40:19;1.27;;;0.47;;
17773;SDS011;9011;33.236;-97.118;2023-04-06T05:42:49;1.20;;;0.50;;
17773;SDS011;9011;33.236;-97.118;2023-04-06T05:45:18;0.32;;;0.32;;
17773;SDS011;9011;33.236;-97.118;2023-04-06T05:47:47;1.23;;;0.40;;
17773;SDS011;9011;33.236;-97.118;2023-04-06T05:50:15;0.40;;;0.40;;
17773;SDS011;9011;33.236;-97.118;2023-04-06T05:52:44;0.90;;;0.50;;
17773;SDS011;9011;33.236;-97.118;2023-04-06T05:55:12;0.73;;;0.60;;
17773;SDS011;9011;33.236;-97.118;2023-04-06T05:57:41;0.75;;;0.45;;
17773;SDS011;9011;33.236;-97.118;2023-04-06T06:00:12;2.28;;;0.70;;
17773;SDS011;9011;33.236;-97.118;2023-04-06T06:02:41;0.82;;;0.40;;
17773;SDS011;9011;33.236;-97.118;2023-04-06T06:05:10;1.00;;;0.57;;
17773;SDS011;9011;33.236;-97.118;2023-04-06T06:07:38;1.00;;;0.55;;
17773;SDS011;9011;33.236;-97.118;2023-04-06T06:10:08;1.07;;;0.50;;
17773;SDS011;9011;33.236;-97.118;2023-04-06T06:12:37;0.60;;;0.47;;
17773;SDS011;9011;33.236;-97.118;2023-04-06T06:15:05;0.60;;;0.50;;
17773;SDS011;9011;33.236;-97.118;2023-04-06T06:17:36;0.50;;;0.40;;
17773;SDS011;9011;33.236;-97.118;2023-04-06T06:20:06;1.67;;;0.50;;
17773;SDS011;9011;33.236;-97.118;2023-04-06T06:22:35;0.57;;;0.50;;
17773;SDS011;9011;33.236;-97.118;2023-04-06T06:25:05;0.77;;;0.53;;
17773;SDS011;9011;33.236;-97.118;2023-04-06T06:27:34;0.80;;;0.70;;
17773;SDS011;9011;33.236;-97.118;2023-04-06T06:30:03;1.23;;;0.70;;
17773;SDS011;9011;33.236;-97.118;2023-04-06T06:32:32;1.70;;;0.97;;
17773;SDS011;9011;33.236;-97.118;2023-04-06T06:35:02;0.60;;;0.53;;
17773;SDS011;9011;33.236;-97.118;2023-04-06T06:37:31;3.07;;;0.60;;
17773;SDS011;9011;33.236;-97.118;2023-04-06T06:40:00;2.43;;;0.60;;
17773;SDS011;9011;33.236;-97.118;2023-04-06T06:42:28;1.00;;;0.60;;
17773;SDS011;9011;33.236;-97.118;2023-04-06T06:44:57;0.43;;;0.43;;
17773;SDS011;9011;33.236;-97.118;2023-04-06T06:47:25;1.50;;;0.73;;
17773;SDS011;9011;33.236;-97.118;2023-04-06T06:49:54;1.83;;;0.60;;
17773;SDS011;9011;33.236;-97.118;2023-04-06T06:52:24;2.57;;;0.77;;
17773;SDS011;9011;33.236;-97.118;2023-04-06T06:54:54;0.63;;;0.60;;
17773;SDS011;9011;33.236;-97.118;2023-04-06T06:57:23;4.13;;;0.77;;
17773;SDS011;9011;33.236;-97.118;2023-04-06T06:59:51;0.80;;;0.50;;
17773;SDS011;9011;33.236;-97.118;2023-04-06T07:02:20;0.70;;;0.50;;
17773;SDS011;9011;33.236;-97.118;2023-04-06T07:04:48;0.60;;;0.60;;
17773;SDS011;9011;33.236;-97.118;2023-04-06T07:07:17;0.97;;;0.40;;
17773;SDS011;9011;33.236;-97.118;2023-04-06T07:09:47;2.73;;;0.80;;
17773;SDS011;9011;33.236;-97.118;2023-04-06T07:12:16;0.70;;;0.50;;
17773;SDS011;9011;33.236;-97.118;2023-04-06T07:14:44;3.57;;;0.90;;
17773;SDS011;9011;33.236;-97.118;2023-04-06T07:17:13;0.60;;;0.50;;
17773;SDS011;9011;33.236;-97.118;2023-04-06T07:19:41;1.97;;;0.60;;
17773;SDS011;9011;33.236;-97.118;2023-04-06T07:22:10;0.40;;;0.40;;
17773;SDS011;9011;33.236;-97.118;2023-04-06T07:24:39;2.07;;;0.60;;
17773;SDS011;9011;33.236;-97.118;2023-04-06T07:27:09;2.10;;;0.50;;
17773;SDS011;9011;33.236;-97.118;2023-04-06T07:29:37;1.27;;;0.63;;
17773;SDS011;9011;33.236;-97.118;2023-04-06T07:32:06;1.80;;;0.40;;
17773;SDS011;9011;33.236;-97.118;2023-04-06T07:34:35;0.50;;;0.50;;
17773;SDS011;9011;33.236;-97.118;2023-04-06T07:37:03;2.10;;;0.57;;
17773;SDS011;9011;33.236;-97.118;2023-04-06T07:39:32;0.63;;;0.33;;
17773;SDS011;9011;33.236;-97.118;2023-04-06T07:42:01;0.90;;;0.57;;
17773;SDS011;9011;33.236;-97.118;2023-04-06T07:44:31;1.80;;;0.73;;
17773;SDS011;9011;33.236;-97.118;2023-04-06T07:46:59;1.23;;;0.53;;
17773;SDS011;9011;33.236;-97.118;2023-04-06T07:49:28;1.17;;;0.70;;
17773;SDS011;9011;33.236;-97.118;2023-04-06T07:51:57;1.40;;;0.50;;
17773;SDS011;9011;33.236;-97.118;2023-04-06T07:54:28;1.17;;;0.50;;
17773;SDS011;9011;33.236;-97.118;2023-04-06T07:56:56;1.10;;;0.60;;
17773;SDS011;9011;33.236;-97.118;2023-04-06T07:59:25;0.77;;;0.50;;
17773;SDS011;9011;33.236;-97.118;2023-04-06T08:01:55;3.27;;;0.60;;
17773;SDS011;9011;33.236;-97.118;2023-04-06T08:04:24;1.83;;;0.60;;
17773;SDS011;9011;33.236;-97.118;2023-04-06T08:06:52;1.37;;;0.70;;
17773;SDS011;9011;33.236;-97.118;2023-04-06T08:09:21;3.77;;;0.83;;
17773;SDS011;9011;33.236;-97.118;2023-04-06T08:11:49;1.43;;;0.80;;
17773;SDS011;9011;33.236;-97.118;2023-04-06T08:14:18;0.90;;;0.70;;
17773;SDS011;9011;33.236;-97.118;2023-04-06T08:16:46;1.40;;;0.60;;
17773;SDS011;9011;33.236;-97.118;2023-04-06T08:19:17;0.83;;;0.70;;
17773;SDS011;9011;33.236;-97.118;2023-04-06T08:21:45;1.27;;;0.90;;
17773;SDS011;9011;33.236;-97.118;2023-04-06T08:24:14;1.20;;;0.80;;
17773;SDS011;9011;33.236;-97.118;2023-04-06T08:26:42;1.10;;;0.70;;
17773;SDS011;9011;33.236;-97.118;2023-04-06T08:29:11;1.00;;;0.80;;
17773;SDS011;9011;33.236;-97.118;2023-04-06T08:31:39;2.50;;;1.00;;
17773;SDS011;9011;33.236;-97.118;2023-04-06T08:34:08;1.30;;;1.07;;
17773;SDS011;9011;33.236;-97.118;2023-04-06T08:36:38;0.90;;;0.70;;
17773;SDS011;9011;33.236;-97.118;2023-04-06T08:39:07;0.77;;;0.70;;
17773;SDS011;9011;33.236;-97.118;2023-04-06T08:41:36;2.17;;;0.90;;
17773;SDS011;9011;33.236;-97.118;2023-04-06T08:44:05;1.10;;;0.63;;
17773;SDS011;9011;33.236;-97.118;2023-04-06T08:46:33;1.33;;;0.80;;
17773;SDS011;9011;33.236;-97.118;2023-04-06T08:49:02;1.90;;;0.90;;
17773;SDS011;9011;33.236;-97.118;2023-04-06T08:51:32;1.57;;;0.87;;
17773;SDS011;9011;33.236;-97.118;2023-04-06T08:54:03;2.30;;;0.80;;
17773;SDS011;9011;33.236;-97.118;2023-04-06T08:56:32;1.63;;;0.77;;
17773;SDS011;9011;33.236;-97.118;2023-04-06T08:59:04;0.90;;;0.80;;
17773;SDS011;9011;33.236;-97.118;2023-04-06T09:01:36;3.23;;;0.93;;
17773;SDS011;9011;33.236;-97.118;2023-04-06T09:04:07;1.27;;;0.93;;
17773;SDS011;9011;33.236;-97.118;2023-04-06T09:06:36;1.40;;;0.90;;
17773;SDS011;9011;33.236;-97.118;2023-04-06T09:09:07;3.40;;;1.10;;
17773;SDS011;9011;33.236;-97.118;2023-04-06T09:11:46;1.10;;;1.00;;
17773;SDS011;9011;33.236;-97.118;2023-04-06T09:14:16;1.30;;;1.13;;
17773;SDS011;9011;33.236;-97.118;2023-04-06T09:17:00;2.30;;;1.00;;
17773;SDS011;9011;33.236;-97.118;2023-04-06T09:19:28;2.60;;;1.20;;
17773;SDS011;9011;33.236;-97.118;2023-04-06T09:22:03;2.03;;;1.27;;
17773;SDS011;9011;33.236;-97.118;2023-04-06T09:24:41;1.30;;;1.20;;
17773;SDS011;9011;33.236;-97.118;2023-04-06T09:27:10;2.23;;;0.93;;
17773;SDS011;9011;33.236;-97.118;2023-04-06T09:29:39;2.97;;;0.93;;
17773;SDS011;9011;33.236;-97.118;2023-04-06T09:32:08;1.30;;;1.20;;
17773;SDS011;9011;33.236;-97.118;2023-04-06T09:34:38;2.73;;;1.20;;
17773;SDS011;9011;33.236;-97.118;2023-04-06T09:37:13;1.03;;;0.93;;
17773;SDS011;9011;33.236;-97.118;2023-04-06T09:39:44;2.17;;;1.30;;
17773;SDS011;9011;33.236;-97.118;2023-04-06T09:42:22;3.70;;;1.33;;
17773;SDS011;9011;33.236;-97.118;2023-04-06T09:44:52;2.67;;;1.37;;
17773;SDS011;9011;33.236;-97.118;2023-04-06T09:47:21;1.57;;;1.47;;
17773;SDS011;9011;33.236;-97.118;2023-04-06T09:49:53;1.40;;;1.30;;
17773;SDS011;9011;33.236;-97.118;2023-04-06T09:52:24;2.67;;;1.40;;
17773;SDS011;9011;33.236;-97.118;2023-04-06T09:55:01;1.93;;;1.40;;
17773;SDS011;9011;33.236;-97.118;2023-04-06T09:57:32;2.00;;;1.60;;
17773;SDS011;9011;33.236;-97.118;2023-04-06T10:00:08;1.50;;;1.40;;
17773;SDS011;9011;33.236;-97.118;2023-04-06T10:02:43;3.77;;;1.60;;
17773;SDS011;9011;33.236;-97.118;2023-04-06T10:05:17;3.73;;;1.40;;
17773;SDS011;9011;33.236;-97.118;2023-04-06T10:07:55;2.20;;;1.40;;
17773;SDS011;9011;33.236;-97.118;2023-04-06T10:10:29;4.00;;;1.40;;
17773;SDS011;9011;33.236;-97.118;2023-04-06T10:12:58;4.43;;;1.60;;
17773;SDS011;9011;33.236;-97.118;2023-04-06T10:15:27;1.70;;;1.60;;
17773;SDS011;9011;33.236;-97.118;2023-04-06T10:17:56;2.13;;;1.60;;
17773;SDS011;9011;33.236;-97.118;2023-04-06T10:20:27;2.43;;;1.50;;
17773;SDS011;9011;33.236;-97.118;2023-04-06T10:23:04;2.20;;;1.40;;
17773;SDS011;9011;33.236;-97.118;2023-04-06T10:25:38;2.27;;;1.50;;
17773;SDS011;9011;33.236;-97.118;2023-04-06T10:28:06;1.73;;;1.63;;
17773;SDS011;9011;33.236;-97.118;2023-04-06T10:30:41;1.57;;;1.33;;
17773;SDS011;9011;33.236;-97.118;2023-04-06T10:33:13;2.43;;;1.40;;
17773;SDS011;9011;33.236;-97.118;2023-04-06T10:35:41;2.17;;;1.53;;
17773;SDS011;9011;33.236;-97.118;2023-04-06T10:38:10;1.43;;;1.33;;
17773;SDS011;9011;33.236;-97.118;2023-04-06T10:40:41;2.97;;;1.70;;
17773;SDS011;9011;33.236;-97.118;2023-04-06T10:43:11;4.83;;;1.93;;
17773;SDS011;9011;33.236;-97.118;2023-04-06T10:45:40;3.50;;;1.70;;
17773;SDS011;9011;33.236;-97.118;2023-04-06T10:48:15;3.17;;;1.77;;
17773;SDS011;9011;33.236;-97.118;2023-04-06T10:50:44;2.10;;;1.50;;
17773;SDS011;9011;33.236;-97.118;2023-04-06T10:53:20;3.63;;;1.50;;
17773;SDS011;9011;33.236;-97.118;2023-04-06T10:55:51;2.93;;;1.40;;
17773;SDS011;9011;33.236;-97.118;2023-04-06T10:58:24;2.93;;;1.40;;
17773;SDS011;9011;33.236;-97.118;2023-04-06T11:00:53;2.50;;;1.50;;
17773;SDS011;9011;33.236;-97.118;2023-04-06T11:03:22;1.97;;;1.77;;
17773;SDS011;9011;33.236;-97.118;2023-04-06T11:05:50;1.90;;;1.60;;
17773;SDS011;9011;33.236;-97.118;2023-04-06T11:08:22;2.43;;;1.50;;
17773;SDS011;9011;33.236;-97.118;2023-04-06T11:11:03;4.43;;;1.40;;
17773;SDS011;9011;33.236;-97.118;2023-04-06T11:13:39;1.40;;;1.20;;
17773;SDS011;9011;33.236;-97.118;2023-04-06T11:16:13;2.10;;;1.40;;
17773;SDS011;9011;33.236;-97.118;2023-04-06T11:18:49;3.90;;;1.70;;
17773;SDS011;9011;33.236;-97.118;2023-04-06T11:21:18;3.63;;;1.67;;
17773;SDS011;9011;33.236;-97.118;2023-04-06T11:23:47;1.70;;;1.47;;
17773;SDS011;9011;33.236;-97.118;2023-04-06T11:26:18;2.23;;;1.43;;
17773;SDS011;9011;33.236;-97.118;2023-04-06T11:28:46;1.73;;;1.40;;
17773;SDS011;9011;33.236;-97.118;2023-04-06T11:31:15;1.70;;;1.40;;
17773;SDS011;9011;33.236;-97.118;2023-04-06T11:33:44;2.63;;;1.70;;
17773;SDS011;9011;33.236;-97.118;2023-04-06T11:36:12;2.30;;;1.53;;
17773;SDS011;9011;33.236;-97.118;2023-04-06T11:38:41;1.50;;;1.40;;
17773;SDS011;9011;33.236;-97.118;2023-04-06T11:41:11;2.67;;;1.30;;
17773;SDS011;9011;33.236;-97.118;2023-04-06T11:43:45;2.03;;;1.40;;
17773;SDS011;9011;33.236;-97.118;2023-04-06T11:46:17;2.00;;;1.10;;
17773;SDS011;9011;33.236;-97.118;2023-04-06T11:48:46;2.47;;;1.40;;
17773;SDS011;9011;33.236;-97.118;2023-04-06T11:51:21;2.93;;;1.43;;
17773;SDS011;9011;33.236;-97.118;2023-04-06T11:53:50;2.77;;;1.50;;
17773;SDS011;9011;33.236;-97.118;2023-04-06T11:56:25;4.77;;;1.73;;
17773;SDS011;9011;33.236;-97.118;2023-04-06T11:58:57;2.07;;;1.60;;
17773;SDS011;9011;33.236;-97.118;2023-04-06T12:01:26;1.27;;;1.10;;
17773;SDS011;9011;33.236;-97.118;2023-04-06T12:03:54;2.03;;;1.67;;
17773;SDS011;9011;33.236;-97.118;2023-04-06T12:06:23;1.77;;;1.13;;
17773;SDS011;9011;33.236;-97.118;2023-04-06T12:08:52;1.93;;;1.37;;
17773;SDS011;9011;33.236;-97.118;2023-04-06T12:11:21;2.37;;;1.40;;
17773;SDS011;9011;33.236;-97.118;2023-04-06T12:13:49;1.43;;;1.30;;
17773;SDS011;9011;33.236;-97.118;2023-04-06T12:16:19;3.30;;;1.30;;
17773;SDS011;9011;33.236;-97.118;2023-04-06T12:18:48;1.60;;;1.27;;
17773;SDS011;9011;33.236;-97.118;2023-04-06T12:21:16;2.53;;;1.50;;
17773;SDS011;9011;33.236;-97.118;2023-04-06T12:23:45;1.83;;;1.00;;
17773;SDS011;9011;33.236;-97.118;2023-04-06T12:26:13;2.47;;;1.03;;
17773;SDS011;9011;33.236;-97.118;2023-04-06T12:28:42;2.50;;;1.30;;
17773;SDS011;9011;33.236;-97.118;2023-04-06T12:31:14;1.10;;;1.00;;
17773;SDS011;9011;33.236;-97.118;2023-04-06T12:33:45;1.63;;;1.23;;
17773;SDS011;9011;33.236;-97.118;2023-04-06T12:36:15;1.63;;;1.00;;
17773;SDS011;9011;33.236;-97.118;2023-04-06T12:38:46;1.73;;;1.10;;
17773;SDS011;9011;33.236;-97.118;2023-04-06T12:41:15;1.47;;;1.00;;
17773;SDS011;9011;33.236;-97.118;2023-04-06T12:43:44;1.27;;;0.83;;
17773;SDS011;9011;33.236;-97.118;2023-04-06T12:46:13;1.80;;;1.20;;
17773;SDS011;9011;33.236;-97.118;2023-04-06T12:48:41;1.63;;;0.90;;
17773;SDS011;9011;33.236;-97.118;2023-04-06T12:51:12;1.50;;;0.80;;
17773;SDS011;9011;33.236;-97.118;2023-04-06T12:53:40;5.77;;;1.43;;
17773;SDS011;9011;33.236;-97.118;2023-04-06T12:56:12;2.20;;;0.97;;
17773;SDS011;9011;33.236;-97.118;2023-04-06T12:58:42;1.17;;;0.90;;
17773;SDS011;9011;33.236;-97.118;2023-04-06T13:01:13;1.03;;;0.70;;
17773;SDS011;9011;33.236;-97.118;2023-04-06T13:03:41;1.20;;;0.90;;
17773;SDS011;9011;33.236;-97.118;2023-04-06T13:06:11;1.53;;;1.03;;
17773;SDS011;9011;33.236;-97.118;2023-04-06T13:08:40;0.70;;;0.67;;
17773;SDS011;9011;33.236;-97.118;2023-04-06T13:11:09;3.20;;;1.00;;
17773;SDS011;9011;33.236;-97.118;2023-04-06T13:13:37;2.13;;;1.10;;
17773;SDS011;9011;33.236;-97.118;2023-04-06T13:16:07;1.70;;;1.10;;
17773;SDS011;9011;33.236;-97.118;2023-04-06T13:18:36;1.87;;;1.17;;
17773;SDS011;9011;33.236;-97.118;2023-04-06T13:21:07;1.00;;;0.90;;
17773;SDS011;9011;33.236;-97.118;2023-04-06T13:23:36;1.17;;;1.07;;
17773;SDS011;9011;33.236;-97.118;2023-04-06T13:26:05;2.97;;;1.17;;
17773;SDS011;9011;33.236;-97.118;2023-04-06T13:28:34;2.57;;;1.07;;
17773;SDS011;9011;33.236;-97.118;2023-04-06T13:31:04;1.63;;;1.00;;
17773;SDS011;9011;33.236;-97.118;2023-04-06T13:33:33;2.60;;;1.07;;
17773;SDS011;9011;33.236;-97.118;2023-04-06T13:36:02;1.70;;;1.10;;
17773;SDS011;9011;33.236;-97.118;2023-04-06T13:38:34;2.20;;;1.07;;
17773;SDS011;9011;33.236;-97.118;2023-04-06T13:41:04;1.90;;;1.10;;
17773;SDS011;9011;33.236;-97.118;2023-04-06T13:43:33;3.50;;;1.20;;
17773;SDS011;9011;33.236;-97.118;2023-04-06T13:46:01;3.73;;;0.93;;
17773;SDS011;9011;33.236;-97.118;2023-04-06T13:48:30;6.10;;;1.57;;
17773;SDS011;9011;33.236;-97.118;2023-04-06T13:51:07;2.53;;;1.20;;
17773;SDS011;9011;33.236;-97.118;2023-04-06T13:53:38;1.20;;;1.10;;
17773;SDS011;9011;33.236;-97.118;2023-04-06T13:56:07;1.30;;;1.10;;
17773;SDS011;9011;33.236;-97.118;2023-04-06T13:58:35;1.53;;;1.00;;
17773;SDS011;9011;33.236;-97.118;2023-04-06T14:01:04;4.30;;;1.30;;
17773;SDS011;9011;33.236;-97.118;2023-04-06T14:03:35;2.03;;;1.00;;
17773;SDS011;9011;33.236;-97.118;2023-04-06T14:06:09;2.03;;;0.90;;
17773;SDS011;9011;33.236;-97.118;2023-04-06T14:08:40;3.40;;;1.30;;
17773;SDS011;9011;33.236;-97.118;2023-04-06T14:11:10;2.53;;;1.13;;
17773;SDS011;9011;33.236;-97.118;2023-04-06T14:13:39;2.80;;;1.30;;
17773;SDS011;9011;33.236;-97.118;2023-04-06T14:16:08;1.90;;;0.93;;
17773;SDS011;9011;33.236;-97.118;2023-04-06T14:18:36;2.73;;;1.27;;
17773;SDS011;9011;33.236;-97.118;2023-04-06T14:21:05;1.37;;;1.10;;
17773;SDS011;9011;33.236;-97.118;2023-04-06T14:23:34;1.40;;;1.30;;
17773;SDS011;9011;33.236;-97.118;2023-04-06T14:26:05;3.03;;;1.27;;
17773;SDS011;9011;33.236;-97.118;2023-04-06T14:28:34;3.90;;;1.20;;
17773;SDS011;9011;33.236;-97.118;2023-04-06T14:31:09;1.77;;;1.40;;
17773;SDS011;9011;33.236;-97.118;2023-04-06T14:33:38;1.70;;;1.13;;
17773;SDS011;9011;33.236;-97.118;2023-04-06T14:36:07;1.30;;;1.10;;
17773;SDS011;9011;33.236;-97.118;2023-04-06T14:38:36;0.97;;;0.83;;
17773;SDS011;9011;33.236;-97.118;2023-04-06T14:41:07;3.50;;;1.53;;
17773;SDS011;9011;33.236;-97.118;2023-04-06T14:43:36;1.57;;;1.47;;
17773;SDS011;9011;33.236;-97.118;2023-04-06T14:46:04;9.90;;;1.97;;